createdAt,value
2022-08-19T00:01:59.537Z,100873.63
2022-08-19T00:04:30.770Z,100875.94
2022-08-19T00:06:58.226Z,100880.03
2022-08-19T00:09:25.930Z,100874.00
2022-08-19T00:11:54.306Z,100877.78
2022-08-19T00:14:21.753Z,100868.44
2022-08-19T00:16:49.921Z,100871.88
2022-08-19T00:19:17.395Z,100879.25
2022-08-19T00:21:44.230Z,100874.19
2022-08-19T00:24:13.684Z,100873.75
2022-08-19T00:26:41.070Z,100875.72
2022-08-19T00:29:09.116Z,100864.38
2022-08-19T00:31:36.594Z,100869.75
2022-08-19T00:34:04.019Z,100864.88
2022-08-19T00:36:30.729Z,100861.22
2022-08-19T00:38:57.469Z,100869.97
2022-08-19T00:41:25.891Z,100871.59
2022-08-19T00:44:27.069Z,100869.34
2022-08-19T00:46:58.417Z,100861.88
2022-08-19T00:49:28.276Z,100869.31
2022-08-19T00:52:01.371Z,100865.34
2022-08-19T00:54:31.245Z,100865.34
2022-08-19T00:57:00.526Z,100859.44
2022-08-19T01:00:00.448Z,100857.47
2022-08-19T01:02:17.569Z,100856.78
2022-08-19T01:04:44.097Z,100847.13
2022-08-19T01:07:11.213Z,100856.09
2022-08-19T01:09:41.742Z,100862.72
2022-08-19T01:12:09.035Z,100866.69
2022-08-19T01:14:37.838Z,100860.53
2022-08-19T01:17:04.964Z,100861.13
2022-08-19T01:19:44.319Z,100858.88
2022-08-19T01:22:25.250Z,100862.28
2022-08-19T01:24:55.594Z,100865.34
2022-08-19T01:27:23.405Z,100866.06
2022-08-19T01:29:51.367Z,100855.13
2022-08-19T01:32:21.166Z,100855.00
2022-08-19T01:35:02.863Z,100850.06
2022-08-19T01:37:31.349Z,100860.75
2022-08-19T01:39:58.379Z,100856.09
2022-08-19T01:42:30.307Z,100855.22
2022-08-19T01:44:57.831Z,100846.78
2022-08-19T01:47:24.426Z,100850.97
2022-08-19T01:49:50.932Z,100858.41
2022-08-19T01:52:17.598Z,100857.97
2022-08-19T01:54:44.638Z,100859.81
2022-08-19T01:57:14.706Z,100860.09
2022-08-19T01:59:43.166Z,100860.53
2022-08-19T02:02:09.825Z,100853.25
2022-08-19T02:04:38.936Z,100842.75
2022-08-19T02:07:06.941Z,100840.03
2022-08-19T02:09:33.676Z,100845.81
2022-08-19T02:12:00.519Z,100839.91
2022-08-19T02:14:27.273Z,100842.84
2022-08-19T02:16:53.841Z,100843.28
2022-08-19T02:19:20.344Z,100841.44
2022-08-19T02:21:47.513Z,100853.53
2022-08-19T02:24:14.034Z,100861.56
2022-08-19T02:26:40.784Z,100860.75
2022-08-19T02:29:08.579Z,100860.50
2022-08-19T02:31:35.217Z,100859.09
2022-08-19T02:34:01.766Z,100855.72
2022-08-19T02:36:28.748Z,100855.59
2022-08-19T02:38:56.936Z,100852.06
2022-08-19T02:41:27.938Z,100854.75
2022-08-19T02:44:20.401Z,100864.03
2022-08-19T02:46:42.711Z,100870.34
2022-08-19T02:49:09.530Z,100868.50
2022-08-19T02:51:39.614Z,100873.97
2022-08-19T02:54:07.785Z,100868.78
2022-08-19T02:56:38.690Z,100878.16
2022-08-19T02:59:11.864Z,100874.53
2022-08-19T03:01:41.520Z,100882.81
2022-08-19T03:04:09.932Z,100881.28
2022-08-19T03:06:39.479Z,100889.69
2022-08-19T03:09:06.276Z,100876.22
2022-08-19T03:11:33.737Z,100880.16
2022-08-19T03:14:02.370Z,100873.69
2022-08-19T03:16:33.553Z,100871.72
2022-08-19T03:19:02.158Z,100863.28
2022-08-19T03:21:32.150Z,100865.63
2022-08-19T03:24:01.346Z,100873.69
2022-08-19T03:26:28.730Z,100875.41
2022-08-19T03:28:58.304Z,100882.25
2022-08-19T03:31:45.252Z,100883.09
2022-08-19T03:34:18.500Z,100882.63
2022-08-19T03:36:45.713Z,100878.00
2022-08-19T03:39:12.321Z,100882.81
2022-08-19T03:41:45.306Z,100874.69
2022-08-19T03:44:19.222Z,100879.97
2022-08-19T03:46:50.555Z,100876.50
2022-08-19T03:49:18.736Z,100878.47
2022-08-19T03:51:48.257Z,100880.28
2022-08-19T03:54:20.861Z,100891.53
2022-08-19T03:56:49.927Z,100884.66
2022-08-19T03:59:25.998Z,100884.22
2022-08-19T04:01:55.104Z,100881.69
2022-08-19T04:04:22.539Z,100872.88
2022-08-19T04:06:50.197Z,100884.66
2022-08-19T04:09:16.809Z,100884.34
2022-08-19T04:11:47.521Z,100876.53
2022-08-19T04:14:19.936Z,100880.44
2022-08-19T04:16:48.514Z,100889.41
2022-08-19T04:19:16.770Z,100893.63
2022-08-19T04:21:49.439Z,100882.13
2022-08-19T04:24:16.018Z,100882.25
2022-08-19T04:26:42.745Z,100878.47
2022-08-19T04:29:14.998Z,100885.19
2022-08-19T04:31:44.291Z,100879.16
2022-08-19T04:34:12.477Z,100897.13
2022-08-19T04:36:41.460Z,100893.06
2022-08-19T04:39:22.939Z,100886.44
2022-08-19T04:42:09.536Z,100887.56
2022-08-19T04:44:46.101Z,100894.47
2022-08-19T04:47:13.288Z,100890.22
2022-08-19T04:49:40.024Z,100901.13
2022-08-19T04:52:06.605Z,100908.78
2022-08-19T04:54:38.735Z,100908.03
2022-08-19T04:57:09.395Z,100914.69
2022-08-19T04:59:37.426Z,100921.50
2022-08-19T05:02:04.972Z,100922.19
2022-08-19T05:04:33.080Z,100919.72
2022-08-19T05:07:04.102Z,100924.63
2022-08-19T05:09:55.453Z,100931.34
2022-08-19T05:12:18.510Z,100933.66
2022-08-19T05:14:46.508Z,100930.19
2022-08-19T05:17:32.123Z,100931.94
2022-08-19T05:20:32.496Z,100943.66
2022-08-19T05:22:59.014Z,100946.16
2022-08-19T05:25:26.660Z,100946.84
2022-08-19T05:27:53.266Z,100947.69
2022-08-19T05:30:20.357Z,100950.03
2022-08-19T05:33:00.765Z,100951.72
2022-08-19T05:35:27.346Z,100953.38
2022-08-19T05:37:58.989Z,100957.38
2022-08-19T05:40:25.774Z,100957.56
2022-08-19T05:42:54.883Z,100955.38
2022-08-19T05:45:22.780Z,100956.97
2022-08-19T05:47:49.330Z,100957.53
2022-08-19T05:50:18.673Z,100955.44
2022-08-19T05:52:50.068Z,100956.34
2022-08-19T05:55:16.888Z,100951.28
2022-08-19T05:57:43.452Z,100953.03
2022-08-19T06:00:11.825Z,100953.41
2022-08-19T06:02:41.761Z,100951.84
2022-08-19T06:05:10.162Z,100946.31
2022-08-19T06:07:37.735Z,100947.94
2022-08-19T06:10:06.959Z,100941.78
2022-08-19T06:12:35.407Z,100935.41
2022-08-19T06:15:05.740Z,100936.88
2022-08-19T06:17:32.679Z,100943.19
2022-08-19T06:20:00.126Z,100949.88
2022-08-19T06:22:27.252Z,100944.16
2022-08-19T06:24:54.911Z,100946.16
2022-08-19T06:27:22.744Z,100944.50
2022-08-19T06:29:49.633Z,100936.06
2022-08-19T06:32:19.212Z,100938.16
2022-08-19T06:34:45.885Z,100936.63
2022-08-19T06:37:12.966Z,100945.59
2022-08-19T06:39:42.295Z,100943.06
2022-08-19T06:42:12.350Z,100940.63
2022-08-19T06:44:43.319Z,100949.34
2022-08-19T06:47:23.707Z,100949.09
2022-08-19T06:50:02.804Z,100949.94
2022-08-19T06:52:31.520Z,100951.75
2022-08-19T06:55:01.652Z,100955.13
2022-08-19T06:57:33.617Z,100953.16
2022-08-19T07:00:01.023Z,100961.75
2022-08-19T07:02:27.676Z,100956.53
2022-08-19T07:04:54.345Z,100959.91
2022-08-19T07:07:23.121Z,100964.59
2022-08-19T07:09:59.248Z,100954.94
2022-08-19T07:12:33.857Z,100960.81
2022-08-19T07:15:02.188Z,100957.88
2022-08-19T07:17:28.924Z,100966.47
2022-08-19T07:19:56.191Z,100957.75
2022-08-19T07:22:26.017Z,100969.69
2022-08-19T07:24:53.510Z,100968.44
2022-08-19T07:27:24.292Z,100965.50
2022-08-19T07:29:57.213Z,100970.84
2022-08-19T07:32:27.657Z,100975.09
2022-08-19T07:34:55.164Z,100981.97
2022-08-19T07:37:27.346Z,100983.25
2022-08-19T07:39:56.396Z,100982.66
2022-08-19T07:42:23.283Z,100992.19
2022-08-19T07:44:50.917Z,100996.50
2022-08-19T07:47:49.072Z,100995.41
2022-08-19T07:50:12.031Z,100999.34
2022-08-19T07:52:44.407Z,100994.41
2022-08-19T07:55:42.583Z,101002.31
2022-08-19T07:58:02.358Z,101003.13
2022-08-19T08:00:31.555Z,101014.53
2022-08-19T08:02:58.169Z,101013.56
2022-08-19T08:05:44.399Z,101020.84
2022-08-19T08:08:31.051Z,101025.22
2022-08-19T08:10:59.127Z,101019.28
2022-08-19T08:13:27.373Z,101027.00
2022-08-19T08:15:54.746Z,101021.78
2022-08-19T08:18:23.141Z,101017.44
2022-08-19T08:20:55.782Z,101024.47
2022-08-19T08:23:29.538Z,101024.19
2022-08-19T08:25:58.110Z,101028.66
2022-08-19T08:28:26.347Z,101025.03
2022-08-19T08:30:57.599Z,101027.56
2022-08-19T08:33:32.741Z,101032.84
2022-08-19T08:36:05.219Z,101034.50
2022-08-19T08:38:39.151Z,101038.03
2022-08-19T08:41:31.113Z,101033.19
2022-08-19T08:43:58.514Z,101040.38
2022-08-19T08:46:31.550Z,101040.22
2022-08-19T08:49:21.462Z,101027.81
2022-08-19T08:52:00.415Z,101027.50
2022-08-19T08:54:34.834Z,101021.44
2022-08-19T08:57:08.155Z,101014.44
2022-08-19T08:59:38.515Z,101016.66
2022-08-19T09:02:05.207Z,101018.47
2022-08-19T09:04:31.856Z,101022.47
2022-08-19T09:07:35.697Z,101016.75
2022-08-19T09:10:12.675Z,101017.38
2022-08-19T09:13:20.689Z,101012.91
2022-08-19T09:16:02.436Z,101018.19
2022-08-19T09:18:53.556Z,101018.88
2022-08-19T09:21:25.735Z,101015.84
2022-08-19T09:23:58.671Z,101022.50
2022-08-19T09:26:35.311Z,101023.28
2022-08-19T09:29:14.098Z,101016.44
2022-08-19T09:31:40.993Z,101015.44
2022-08-19T09:34:07.545Z,101015.28
2022-08-19T09:36:54.548Z,101021.69
2022-08-19T09:39:22.165Z,101015.88
2022-08-19T09:41:50.641Z,101018.28
2022-08-19T09:44:18.240Z,101023.91
2022-08-19T09:46:47.920Z,101017.78
2022-08-19T09:49:15.415Z,101017.81
2022-08-19T09:51:42.093Z,101010.19
2022-08-19T09:54:11.393Z,101013.88
2022-08-19T09:56:38.109Z,101007.13
2022-08-19T09:59:05.126Z,101017.53
2022-08-19T10:01:33.090Z,101011.03
2022-08-19T10:04:05.321Z,101012.38
2022-08-19T10:06:46.860Z,101022.19
2022-08-19T10:09:15.180Z,101013.59
2022-08-19T10:11:51.194Z,101016.28
2022-08-19T10:14:23.230Z,101015.31
2022-08-19T10:16:50.314Z,101021.50
2022-08-19T10:19:25.492Z,101007.44
2022-08-19T10:21:53.808Z,101014.72
2022-08-19T10:24:21.561Z,101010.28
2022-08-19T10:26:55.937Z,101000.06
2022-08-19T10:29:32.516Z,101008.34
2022-08-19T10:32:09.681Z,100994.94
2022-08-19T10:34:48.440Z,101003.44
2022-08-19T10:37:18.054Z,101000.97
2022-08-19T10:39:55.438Z,100995.94
2022-08-19T10:42:22.484Z,100993.25
2022-08-19T10:44:49.076Z,100994.44
2022-08-19T10:47:25.940Z,100985.72
2022-08-19T10:50:13.054Z,100996.13
2022-08-19T10:52:50.159Z,100987.56
2022-08-19T10:55:38.781Z,100980.84
2022-08-19T10:58:10.643Z,100990.06
2022-08-19T11:00:38.168Z,100996.59
2022-08-19T11:03:05.044Z,100999.44
2022-08-19T11:05:31.680Z,100993.09
2022-08-19T11:08:21.221Z,100990.41
2022-08-19T11:10:54.392Z,100986.75
2022-08-19T11:13:20.935Z,100989.25
2022-08-19T11:16:08.147Z,100990.41
2022-08-19T11:18:39.879Z,100985.72
2022-08-19T11:21:19.817Z,100984.88
2022-08-19T11:23:49.199Z,100981.53
2022-08-19T11:26:17.102Z,100978.00
2022-08-19T11:28:44.222Z,100982.38
2022-08-19T11:31:13.107Z,100982.72
2022-08-19T11:33:39.926Z,100979.53
2022-08-19T11:36:06.800Z,100979.19
2022-08-19T11:38:33.518Z,100973.47
2022-08-19T11:41:02.226Z,100973.16
2022-08-19T11:43:30.353Z,100972.63
2022-08-19T11:45:59.338Z,100961.41
2022-08-19T11:48:26.384Z,100965.06
2022-08-19T11:50:56.291Z,100959.69
2022-08-19T11:53:23.226Z,100960.28
2022-08-19T11:55:51.585Z,100958.94
2022-08-19T11:58:19.091Z,100957.88
2022-08-19T12:00:46.154Z,100967.25
2022-08-19T12:03:15.929Z,100965.22
2022-08-19T12:05:42.605Z,100966.22
2022-08-19T12:08:09.700Z,100966.38
2022-08-19T12:10:36.614Z,100959.00
2022-08-19T12:13:03.669Z,100974.47
2022-08-19T12:15:36.917Z,100966.91
2022-08-19T12:18:05.256Z,100961.22
2022-08-19T12:20:36.260Z,100952.09
2022-08-19T12:23:04.837Z,100945.69
2022-08-19T12:25:32.632Z,100944.31
2022-08-19T12:28:00.075Z,100952.88
2022-08-19T12:30:27.010Z,100947.44
2022-08-19T12:32:54.371Z,100937.44
2022-08-19T12:35:22.068Z,100953.44
2022-08-19T12:37:57.083Z,100937.50
2022-08-19T12:40:24.279Z,100922.16
2022-08-19T12:42:53.670Z,100935.56
2022-08-19T12:45:20.283Z,100933.56
2022-08-19T12:47:47.890Z,100936.16
2022-08-19T12:50:16.678Z,100939.16
2022-08-19T12:52:43.341Z,100932.94
2022-08-19T12:55:12.406Z,100934.56
2022-08-19T12:57:39.231Z,100938.56
2022-08-19T13:00:15.331Z,100933.53
2022-08-19T13:02:45.923Z,100933.66
2022-08-19T13:05:16.694Z,100929.78
2022-08-19T13:07:47.017Z,100929.28
2022-08-19T13:10:18.921Z,100924.59
2022-08-19T13:12:47.992Z,100931.19
2022-08-19T13:15:21.720Z,100926.28
2022-08-19T13:17:52.065Z,100926.34
2022-08-19T13:20:20.883Z,100920.91
2022-08-19T13:22:49.249Z,100923.91
2022-08-19T13:25:18.390Z,100915.69
2022-08-19T13:27:45.246Z,100912.22
2022-08-19T13:30:33.280Z,100911.41
2022-08-19T13:33:12.144Z,100917.88
2022-08-19T13:35:56.004Z,100911.94
2022-08-19T13:38:23.026Z,100917.38
2022-08-19T13:40:52.417Z,100910.75
2022-08-19T13:43:23.786Z,100898.47
2022-08-19T13:45:56.799Z,100902.53
2022-08-19T13:48:24.541Z,100899.47
2022-08-19T13:50:51.106Z,100891.53
2022-08-19T13:53:18.743Z,100899.28
2022-08-19T13:55:45.566Z,100900.44
2022-08-19T13:58:13.014Z,100895.53
2022-08-19T14:00:43.687Z,100892.34
2022-08-19T14:03:10.971Z,100881.00
2022-08-19T14:05:38.149Z,100890.66
2022-08-19T14:08:05.080Z,100883.44
2022-08-19T14:10:32.454Z,100887.97
2022-08-19T14:13:03.219Z,100891.25
2022-08-19T14:15:30.585Z,100885.47
2022-08-19T14:17:57.424Z,100875.91
2022-08-19T14:20:26.278Z,100885.59
2022-08-19T14:22:54.102Z,100884.66
2022-08-19T14:25:25.553Z,100884.22
2022-08-19T14:27:53.271Z,100884.78
2022-08-19T14:30:23.196Z,100880.50
2022-08-19T14:32:49.729Z,100891.09
2022-08-19T14:35:16.979Z,100885.25
2022-08-19T14:37:46.405Z,100881.91
2022-08-19T14:40:16.573Z,100881.91
2022-08-19T14:42:43.453Z,100881.91
2022-08-19T14:45:12.510Z,100888.31
2022-08-19T15:00:15.718Z,100896.56
2022-08-19T15:02:45.160Z,100906.84
2022-08-19T15:05:13.534Z,100907.00
2022-08-19T15:07:41.236Z,100906.47
2022-08-19T15:10:09.122Z,100906.47
2022-08-19T15:12:36.758Z,100903.91
2022-08-19T15:15:03.655Z,100911.72
2022-08-19T15:17:32.439Z,100920.84
2022-08-19T15:20:16.040Z,100918.59
2022-08-19T15:22:43.175Z,100921.59
2022-08-19T15:25:12.100Z,100927.91
2022-08-19T15:27:40.540Z,100922.31
2022-08-19T15:30:10.069Z,100933.41
2022-08-19T15:32:38.092Z,100933.63
2022-08-19T15:35:06.764Z,100938.72
2022-08-19T15:37:34.473Z,100937.41
2022-08-19T15:40:06.518Z,100937.09
2022-08-19T15:42:33.902Z,100945.41
2022-08-19T15:45:02.003Z,100943.72
2022-08-19T15:47:34.967Z,100938.53
2022-08-19T15:50:06.761Z,100947.06
2022-08-19T15:52:48.326Z,100936.63
2022-08-19T15:55:32.198Z,100942.13
2022-08-19T15:58:29.722Z,100937.00
2022-08-19T16:01:27.385Z,100928.50
2022-08-19T16:04:15.846Z,100934.69
2022-08-19T16:06:48.846Z,100940.69
2022-08-19T16:09:17.502Z,100940.09
2022-08-19T16:11:46.373Z,100943.34
2022-08-19T16:14:18.537Z,100953.44
2022-08-19T16:16:47.184Z,100949.63
2022-08-19T16:19:16.350Z,100950.28
2022-08-19T16:21:45.225Z,100952.13
2022-08-19T16:24:13.699Z,100957.88
2022-08-19T16:26:42.171Z,100957.34
2022-08-19T16:29:13.047Z,100948.59
2022-08-19T16:31:43.244Z,100960.56
2022-08-19T16:34:11.263Z,100959.91
2022-08-19T16:36:41.649Z,100960.75
2022-08-19T16:39:12.898Z,100963.09
2022-08-19T16:41:41.144Z,100963.75
2022-08-19T16:44:09.946Z,100966.47
2022-08-19T16:46:41.509Z,100971.34
2022-08-19T16:49:10.678Z,100975.25
2022-08-19T16:51:39.096Z,100977.94
2022-08-19T16:54:06.159Z,100974.94
2022-08-19T16:56:32.799Z,100983.16
2022-08-19T16:59:01.893Z,100974.94
2022-08-19T17:01:29.352Z,100974.44
2022-08-19T17:03:56.716Z,100967.72
2022-08-19T17:06:26.391Z,100972.75
2022-08-19T17:08:56.076Z,100971.34
2022-08-19T17:11:24.360Z,100969.53
2022-08-19T17:13:51.366Z,100966.47
2022-08-19T17:16:24.409Z,100966.13
2022-08-19T17:18:55.756Z,100964.97
2022-08-19T17:21:27.410Z,100959.94
2022-08-19T17:23:55.510Z,100955.56
2022-08-19T17:26:22.898Z,100952.72
2022-08-19T17:28:52.076Z,100958.09
2022-08-19T17:31:21.170Z,100957.78
2022-08-19T17:33:48.474Z,100954.28
2022-08-19T17:36:23.554Z,100957.19
2022-08-19T17:38:51.238Z,100950.66
2022-08-19T17:41:17.808Z,100944.59
2022-08-19T17:43:45.089Z,100950.63
2022-08-19T17:46:20.268Z,100946.25
2022-08-19T17:48:54.619Z,100949.28
2022-08-19T17:51:22.291Z,100944.41
2022-08-19T17:53:50.797Z,100941.25
2022-08-19T17:56:18.131Z,100940.75
2022-08-19T17:58:45.097Z,100952.16
2022-08-19T18:01:32.021Z,100956.84
2022-08-19T18:04:14.622Z,100963.41
2022-08-19T18:06:41.750Z,100959.72
2022-08-19T18:09:20.741Z,100963.06
2022-08-19T18:11:52.772Z,100964.50
2022-08-19T18:14:25.056Z,100966.69
2022-08-19T18:16:57.709Z,100973.25
2022-08-19T18:19:25.505Z,100975.91
2022-08-19T18:21:56.738Z,100978.59
2022-08-19T18:24:23.501Z,100981.97
2022-08-19T18:26:50.057Z,100981.16
2022-08-19T18:29:16.732Z,100994.75
2022-08-19T18:31:43.647Z,100993.91
2022-08-19T18:34:10.920Z,100992.06
2022-08-19T18:36:53.442Z,100990.25
2022-08-19T18:39:39.258Z,100993.91
2022-08-19T18:42:33.226Z,100993.09
2022-08-19T18:45:18.651Z,100995.78
2022-08-19T18:48:03.775Z,100997.75
2022-08-19T18:50:30.408Z,101004.50
2022-08-19T18:56:44.994Z,101011.06
2022-08-19T18:59:15.006Z,101007.34
2022-08-19T19:01:50.515Z,101002.09
2022-08-19T19:04:22.473Z,101001.56
2022-08-19T19:06:49.369Z,100998.72
2022-08-19T19:09:21.756Z,100994.84
2022-08-19T19:12:04.393Z,100990.50
2022-08-19T19:14:49.116Z,100996.19
2022-08-19T19:17:16.856Z,100998.88
2022-08-19T19:19:44.487Z,100997.50
2022-08-19T19:22:19.369Z,101000.69
2022-08-19T19:24:46.047Z,101005.09
2022-08-19T19:27:15.492Z,101003.75
2022-08-19T19:29:42.638Z,101005.78
2022-08-19T19:32:18.626Z,101002.91
2022-08-19T19:34:45.330Z,101007.94
2022-08-19T19:37:12.002Z,100998.84
2022-08-19T19:39:46.391Z,101011.28
2022-08-19T19:42:20.730Z,101007.53
2022-08-19T19:44:50.389Z,101009.25
2022-08-19T19:47:24.529Z,101016.28
2022-08-19T19:50:13.249Z,101014.09
2022-08-19T19:52:40.947Z,101009.94
2022-08-19T19:55:09.638Z,101013.47
2022-08-19T19:57:40.066Z,101012.78
2022-08-19T20:00:09.023Z,101012.41
2022-08-19T20:02:35.614Z,101018.34
2022-08-19T20:05:05.047Z,101018.97
2022-08-19T20:07:50.344Z,101024.63
2022-08-19T20:10:17.143Z,101025.75
2022-08-19T20:12:43.749Z,101033.06
2022-08-19T20:15:10.634Z,101035.53
2022-08-19T20:17:42.615Z,101036.44
2022-08-19T20:20:19.297Z,101041.19
2022-08-19T20:22:47.470Z,101032.19
2022-08-19T20:25:18.902Z,101033.28
2022-08-19T20:27:49.264Z,101032.53
2022-08-19T20:30:20.856Z,101046.66
2022-08-19T20:32:49.057Z,101050.22
2022-08-19T20:35:18.267Z,101051.06
2022-08-19T20:37:45.112Z,101062.56
2022-08-19T20:40:16.313Z,101054.81
2022-08-19T20:42:47.021Z,101058.78
2022-08-19T20:45:28.077Z,101066.72
2022-08-19T20:48:02.362Z,101060.06
2022-08-19T20:50:30.179Z,101070.06
2022-08-19T20:52:57.787Z,101063.78
2022-08-19T20:55:25.822Z,101062.50
2022-08-19T20:57:52.452Z,101068.44
2022-08-19T21:00:19.337Z,101071.28
2022-08-19T21:02:46.883Z,101068.97
2022-08-19T21:05:13.832Z,101077.88
2022-08-19T21:07:40.804Z,101077.31
2022-08-19T21:10:07.872Z,101077.03
2022-08-19T21:12:34.830Z,101074.00
2022-08-19T21:15:01.530Z,101082.28
2022-08-19T21:17:28.229Z,101079.19
2022-08-19T21:19:54.821Z,101074.81
2022-08-19T21:22:21.385Z,101080.47
2022-08-19T21:24:48.283Z,101082.88
2022-08-19T21:27:14.899Z,101082.00
2022-08-19T21:29:42.157Z,101084.97
2022-08-19T21:32:13.988Z,101083.84
2022-08-19T21:34:42.792Z,101082.56
2022-08-19T21:37:25.075Z,101083.97
2022-08-19T21:39:53.115Z,101081.66
2022-08-19T21:42:19.930Z,101080.41
2022-08-19T21:44:46.477Z,101086.34
2022-08-19T21:47:13.477Z,101081.69
2022-08-19T21:49:40.067Z,101085.91
2022-08-19T21:52:07.267Z,101084.50
2022-08-19T21:54:38.281Z,101084.66
2022-08-19T21:57:10.656Z,101080.81
2022-08-19T21:59:43.611Z,101076.16
2022-08-19T22:02:20.275Z,101084.78
2022-08-19T22:04:49.537Z,101088.50
2022-08-19T22:07:17.090Z,101084.47
2022-08-19T22:09:45.681Z,101088.78
2022-08-19T22:12:30.590Z,101090.78
2022-08-19T22:14:58.589Z,101090.25
2022-08-19T22:17:27.361Z,101087.31
2022-08-19T22:19:55.974Z,101092.91
2022-08-19T22:22:31.189Z,101101.47
2022-08-19T22:25:11.754Z,101096.25
2022-08-19T22:27:39.776Z,101103.25
2022-08-19T22:30:10.281Z,101094.66
2022-08-19T22:32:37.345Z,101092.72
2022-08-19T22:35:08.238Z,101094.66
2022-08-19T22:37:34.941Z,101101.00
2022-08-19T22:40:05.488Z,101096.78
2022-08-19T22:42:33.000Z,101102.25
2022-08-19T22:45:00.287Z,101097.06
2022-08-19T22:47:29.467Z,101109.34
2022-08-19T22:50:00.598Z,101105.69
2022-08-19T22:52:27.766Z,101102.19
2022-08-19T22:54:57.012Z,101104.84
2022-08-19T22:57:23.812Z,101102.63
2022-08-19T22:59:52.636Z,101106.56
2022-08-19T23:02:32.754Z,101113.03
2022-08-19T23:05:02.477Z,101109.63
2022-08-19T23:07:29.541Z,101101.94
2022-08-19T23:09:56.167Z,101108.69
2022-08-19T23:12:35.204Z,101109.53
2022-08-19T23:15:07.989Z,101109.97
2022-08-19T23:17:35.247Z,101105.47
2022-08-19T23:20:02.416Z,101099.16
2022-08-19T23:22:30.485Z,101104.06
2022-08-19T23:25:04.816Z,101106.06
2022-08-19T23:27:49.790Z,101103.94
2022-08-19T23:30:26.019Z,101105.19
2022-08-19T23:33:12.314Z,101107.84
2022-08-19T23:35:40.974Z,101095.22
2022-08-19T23:38:09.385Z,101102.50
2022-08-19T23:40:38.426Z,101102.66
2022-08-19T23:43:06.307Z,101108.00
2022-08-19T23:45:38.758Z,101100.16
2022-08-19T23:48:06.887Z,101105.06
2022-08-19T23:50:34.253Z,101107.84
2022-08-19T23:53:01.814Z,101102.13
2022-08-19T23:55:33.155Z,101100.41
2022-08-19T23:57:59.873Z,101098.75
